Time;durP1;ratioP1;P1;durP2;ratioP2;P2;SDS_P1;SDS_P2;PMS_P1;PMS_P2;Temp;Humidity;BMP_temperature;BMP_pressure;BME280_temperature;BME280_humidity;BME280_pressure;Samples;Min_cycle;Max_cycle;Signal;HPM_P1;HPM_P2
2022/04/17 01:00:07;;;;;;;4.30;3.90;;;;;;;;;;5852066;24;20038;-81
2022/04/17 03:30:48;;;;;;;6.07;3.45;;;;;;;;;;6135797;23;20048;-83
2022/04/17 05:11:20;;;;;;;4.03;3.72;;;;;;;;;;5819640;24;20027;-83
2022/04/17 06:03:19;;;;;;;5.18;4.10;;;;;;;;;;6053599;23;20024;-83
2022/04/17 06:21:00;;;;;;;5.40;4.95;;;;;;;;;;5908892;24;20016;-84
2022/04/17 06:35:47;;;;;;;4.75;3.88;;;;;;;;;;5953339;24;20072;-84
2022/04/17 06:40:10;;;;;;;5.32;4.22;;;;;;;;;;5965349;24;20032;-83
2022/04/17 06:48:21;;;;;;;3.90;3.55;;;;;;;;;;6118590;23;20026;-82
2022/04/17 06:51:11;;;;;;;4.10;3.65;;;;;;;;;;6048396;23;20804;-83
2022/04/17 06:54:41;;;;;;;4.32;4.03;;;;;;;;;;6020014;23;20019;-82
2022/04/17 06:57:43;;;;;;;;;;;;;;;;;;;;;
2022/04/17 07:01:12;;;;;;;3.95;3.65;;;;;;;;;;6019957;23;20558;-82
2022/04/17 07:08:56;;;;;;;4.38;4.07;;;;;;;;;;6032954;23;20029;-86
2022/04/17 07:11:25;;;;;;;4.45;4.03;;;;;;;;;;6102487;23;20026;-84
2022/04/17 07:50:01;;;;;;;2.85;2.53;;;;;;;;;;5780612;24;20034;-85
2022/04/17 08:09:22;;;;;;;4.68;3.33;;;;;;;;;;5753191;24;20041;-83
2022/04/17 08:13:21;;;;;;;2.30;2.15;;;;;;;;;;5823730;24;20045;-84
2022/04/17 08:16:10;;;;;;;;;;;;;;;;;;;;;
2022/04/17 08:19:04;;;;;;;3.58;3.00;;;;;;;;;;5877015;24;20022;-87
2022/04/17 08:39:21;;;;;;;5.30;4.30;;;;;;;;;;6020312;23;20034;-86
2022/04/17 08:45:54;;;;;;;5.95;4.63;;;;;;;;;;5870409;24;20029;-84
2022/04/17 08:53:04;;;;;;;3.58;3.33;;;;;;;;;;5837045;24;20017;-83
2022/04/17 08:55:32;;;;;;;5.25;4.75;;;;;;;;;;5929080;24;20029;-82
2022/04/17 08:58:00;;;;;;;4.47;3.88;;;;;;;;;;5904139;24;20028;-84
2022/04/17 09:00:29;;;;;;;11.23;6.32;;;;;;;;;;5897242;24;20345;-82
2022/04/17 09:02:57;;;;;;;6.25;3.58;;;;;;;;;;5958186;23;20034;-82
2022/04/17 09:05:25;;;;;;;4.10;3.80;;;;;;;;;;6040504;23;20666;-83
2022/04/17 09:07:54;;;;;;;3.65;3.28;;;;;;;;;;6092315;23;20022;-81
2022/04/17 09:10:32;;;;;;;3.78;3.08;;;;;;;;;;6109868;23;20029;-85
2022/04/17 09:13:04;;;;;;;4.35;3.97;;;;;;;;;;6100095;23;20026;-83
2022/04/17 09:15:33;;;;;;;5.57;4.32;;;;;;;;;;6101730;23;20710;-83
2022/04/17 09:18:02;;;;;;;3.55;3.25;;;;;;;;;;6131042;23;20025;-81
2022/04/17 09:20:31;;;;;;;4.28;3.92;;;;;;;;;;6078019;23;20024;-81
2022/04/17 09:23:00;;;;;;;3.42;3.13;;;;;;;;;;6100721;23;20353;-78
2022/04/17 09:25:37;;;;;;;3.67;3.20;;;;;;;;;;6133083;23;20092;-86
2022/04/17 09:28:06;;;;;;;5.25;4.75;;;;;;;;;;6161363;23;20437;-77
2022/04/17 09:30:45;;;;;;;4.20;3.13;;;;;;;;;;6155107;23;20030;-82
2022/04/17 09:33:13;;;;;;;4.10;3.28;;;;;;;;;;6134019;23;20022;-83
2022/04/17 09:35:55;;;;;;;3.75;3.45;;;;;;;;;;6101756;23;20404;-83
2022/04/17 09:38:27;;;;;;;3.75;3.17;;;;;;;;;;6103859;23;20037;-83
2022/04/17 09:41:04;;;;;;;2.53;2.28;;;;;;;;;;6125742;23;20353;-77
2022/04/17 09:43:35;;;;;;;3.72;3.40;;;;;;;;;;6150960;23;20032;-83
2022/04/17 09:46:10;;;;;;;3.90;3.60;;;;;;;;;;6121539;23;20025;-83
2022/04/17 09:55:50;;;;;;;2.65;2.47;;;;;;;;;;6075942;23;20026;-83
2022/04/17 09:58:49;;;;;;;3.13;2.78;;;;;;;;;;6046546;23;20026;-82
2022/04/17 10:01:56;;;;;;;4.22;3.85;;;;;;;;;;6133041;23;20022;-79
2022/04/17 10:08:21;;;;;;;4.40;4.05;;;;;;;;;;6129877;23;20025;-81
2022/04/17 10:10:52;;;;;;;5.00;4.05;;;;;;;;;;6098712;23;20036;-80
2022/04/17 10:13:23;;;;;;;3.22;3.03;;;;;;;;;;6098804;23;20021;-84
2022/04/17 10:16:21;;;;;;;3.67;3.25;;;;;;;;;;6099483;23;20431;-81
2022/04/17 10:18:53;;;;;;;3.17;2.97;;;;;;;;;;6125705;23;20040;-81
2022/04/17 10:21:28;;;;;;;2.97;2.78;;;;;;;;;;6097985;23;20034;-81
2022/04/17 10:24:00;;;;;;;2.97;2.70;;;;;;;;;;6098803;23;20579;-81
2022/04/17 10:26:29;;;;;;;4.00;3.80;;;;;;;;;;6152891;23;20034;-84
2022/04/17 10:28:59;;;;;;;6.15;4.28;;;;;;;;;;6098987;23;20036;-83
2022/04/17 10:31:33;;;;;;;4.00;3.63;;;;;;;;;;6098325;23;20025;-81
2022/04/17 10:34:06;;;;;;;5.78;4.63;;;;;;;;;;6098486;23;20358;-82
2022/04/17 10:37:07;;;;;;;4.50;3.83;;;;;;;;;;6075934;23;20450;-81
2022/04/17 10:39:42;;;;;;;3.03;2.63;;;;;;;;;;6043286;23;20029;-83
2022/04/17 10:42:11;;;;;;;4.32;3.75;;;;;;;;;;6097534;23;20032;-82
2022/04/17 10:44:42;;;;;;;5.10;3.15;;;;;;;;;;6132526;23;20389;-81
2022/04/17 10:47:19;;;;;;;3.40;3.20;;;;;;;;;;6121733;23;20034;-82
2022/04/17 10:49:56;;;;;;;2.65;2.45;;;;;;;;;;6096794;23;20029;-83
2022/04/17 10:52:29;;;;;;;5.18;3.10;;;;;;;;;;6098782;23;20022;-83
2022/04/17 10:55:09;;;;;;;2.75;2.53;;;;;;;;;;6120111;23;20025;-82
2022/04/17 10:57:45;;;;;;;3.40;3.10;;;;;;;;;;6073857;23;20030;-85
2022/04/17 11:00:36;;;;;;;3.75;3.13;;;;;;;;;;6098588;23;20017;-85
2022/04/17 11:03:37;;;;;;;2.47;2.35;;;;;;;;;;6013254;23;20081;-85
2022/04/17 11:06:45;;;;;;;3.78;2.25;;;;;;;;;;5986182;23;20026;-86
2022/04/17 11:09:39;;;;;;;2.70;2.50;;;;;;;;;;6008965;23;20019;-84
2022/04/17 11:12:11;;;;;;;3.58;3.25;;;;;;;;;;6011197;23;20022;-84
2022/04/17 11:14:58;;;;;;;4.05;3.75;;;;;;;;;;6012714;23;20046;-83
2022/04/17 11:17:28;;;;;;;3.33;3.03;;;;;;;;;;6009370;23;20027;-81
2022/04/17 11:19:57;;;;;;;3.60;3.30;;;;;;;;;;6067197;23;20022;-83
2022/04/17 11:22:32;;;;;;;5.13;2.80;;;;;;;;;;6011125;23;20404;-79
2022/04/17 11:25:19;;;;;;;2.97;2.78;;;;;;;;;;6009672;23;20175;-82
2022/04/17 11:28:32;;;;;;;3.53;2.63;;;;;;;;;;6009247;23;20026;-82
2022/04/17 11:31:03;;;;;;;4.40;3.42;;;;;;;;;;6010382;23;20030;-81
2022/04/17 11:33:31;;;;;;;3.13;2.33;;;;;;;;;;6041282;23;20019;-80
2022/04/17 11:36:00;;;;;;;3.83;3.20;;;;;;;;;;6011323;23;20054;-80
2022/04/17 11:38:34;;;;;;;3.08;2.78;;;;;;;;;;5963738;23;20026;-84
2022/04/17 11:41:13;;;;;;;5.35;3.67;;;;;;;;;;6082184;23;20589;-81
2022/04/17 11:43:58;;;;;;;7.00;3.55;;;;;;;;;;6099392;23;20457;-80
2022/04/17 11:46:36;;;;;;;3.45;1.80;;;;;;;;;;6092486;23;20040;-82
2022/04/17 11:49:09;;;;;;;2.47;2.28;;;;;;;;;;6097561;23;20524;-80
2022/04/17 11:51:58;;;;;;;8.02;3.05;;;;;;;;;;6098238;23;20021;-81
2022/04/17 11:58:23;;;;;;;8.25;3.25;;;;;;;;;;5976063;23;20357;-86
2022/04/17 12:01:03;;;;;;;3.10;2.90;;;;;;;;;;5976772;23;20031;-86
2022/04/17 12:03:41;;;;;;;2.67;2.47;;;;;;;;;;5952394;23;20495;-83
2022/04/17 12:06:12;;;;;;;2.20;2.10;;;;;;;;;;6004320;23;20361;-87
2022/04/17 12:08:48;;;;;;;3.58;3.22;;;;;;;;;;6037022;23;20033;-76
2022/04/17 12:11:18;;;;;;;2.95;2.72;;;;;;;;;;6118801;23;20029;-77
2022/04/17 12:13:54;;;;;;;2.83;2.63;;;;;;;;;;6125112;23;20026;-87
2022/04/17 12:16:22;;;;;;;3.28;2.97;;;;;;;;;;6092835;23;20446;-84
2022/04/17 12:18:56;;;;;;;3.35;3.15;;;;;;;;;;6091209;23;20037;-85
2022/04/17 12:21:28;;;;;;;2.20;2.10;;;;;;;;;;6124867;23;20036;-85
2022/04/17 12:23:58;;;;;;;2.65;2.45;;;;;;;;;;6068904;23;20037;-84
2022/04/17 12:26:33;;;;;;;3.60;3.28;;;;;;;;;;6092625;23;20026;-87
2022/04/17 12:30:01;;;;;;;2.63;2.28;;;;;;;;;;6115373;23;20018;-85
2022/04/17 12:32:45;;;;;;;3.63;2.67;;;;;;;;;;6092734;23;20021;-85
2022/04/17 12:35:21;;;;;;;2.28;2.13;;;;;;;;;;6091352;23;20022;-86
2022/04/17 12:38:06;;;;;;;8.15;3.20;;;;;;;;;;6121895;23;20029;-85
2022/04/17 12:40:53;;;;;;;2.63;2.45;;;;;;;;;;6094102;23;20029;-87
2022/04/17 12:43:30;;;;;;;7.18;4.78;;;;;;;;;;6093614;23;20037;-85
2022/04/17 12:46:31;;;;;;;;;;;;;;;;;;;;;
2022/04/17 12:50:04;;;;;;;3.45;3.25;;;;;;;;;;6074238;23;20018;-85
2022/04/17 12:52:32;;;;;;;5.38;2.13;;;;;;;;;;6128192;23;20029;-86
2022/04/17 12:59:55;;;;;;;3.20;2.90;;;;;;;;;;6116278;23;20013;-83
2022/04/17 13:02:25;;;;;;;3.13;2.92;;;;;;;;;;6120039;23;20026;-85
2022/04/17 13:04:56;;;;;;;2.53;2.42;;;;;;;;;;6116174;23;20018;-84
2022/04/17 13:07:35;;;;;;;2.92;2.65;;;;;;;;;;6115243;23;20571;-87
2022/04/17 13:10:04;;;;;;;3.63;3.33;;;;;;;;;;6121055;23;20037;-84
2022/04/17 13:12:36;;;;;;;2.92;2.63;;;;;;;;;;6127855;23;20014;-85
2022/04/17 13:15:06;;;;;;;3.33;2.78;;;;;;;;;;6117359;23;20026;-87
2022/04/17 13:17:47;;;;;;;2.42;2.22;;;;;;;;;;6091419;23;20018;-84
2022/04/17 13:20:16;;;;;;;;;;;;;;;;;;6126675;23;20746;-85
2022/04/17 13:22:44;;;;;;;3.45;1.90;;;;;;;;;;6091048;23;19928;-85
2022/04/17 13:25:13;;;;;;;5.97;2.10;;;;;;;;;;6090537;23;20028;-85
2022/04/17 13:27:41;;;;;;;5.57;3.30;;;;;;;;;;6091995;23;20403;-86
2022/04/17 13:30:11;;;;;;;3.20;2.80;;;;;;;;;;6121221;23;20556;-86
2022/04/17 13:32:39;;;;;;;3.08;2.85;;;;;;;;;;6092076;23;20022;-84
2022/04/17 13:35:08;;;;;;;2.85;2.47;;;;;;;;;;6091255;23;20036;-85
2022/04/17 13:40:24;;;;;;;2.42;2.22;;;;;;;;;;6093088;23;20054;-84
2022/04/17 13:42:52;;;;;;;2.90;2.70;;;;;;;;;;6121017;23;20465;-88
2022/04/17 13:45:20;;;;;;;3.50;3.20;;;;;;;;;;6093403;23;20022;-86
2022/04/17 13:47:49;;;;;;;2.67;2.47;;;;;;;;;;6093697;23;20026;-88
2022/04/17 13:50:19;;;;;;;4.95;3.13;;;;;;;;;;6058400;23;20030;-90
2022/04/17 13:52:49;;;;;;;6.75;3.10;;;;;;;;;;6096146;23;20018;-88
2022/04/17 13:55:24;;;;;;;2.55;2.45;;;;;;;;;;6124318;23;20021;-89
2022/04/17 13:58:12;;;;;;;2.40;2.20;;;;;;;;;;6101646;23;20025;-89
2022/04/17 14:01:12;;;;;;;2.55;2.13;;;;;;;;;;6012348;23;20027;-89
2022/04/17 14:04:02;;;;;;;3.38;3.08;;;;;;;;;;6041695;23;20026;-88
2022/04/17 14:14:45;;;;;;;2.38;2.20;;;;;;;;;;6095648;23;20030;-87
2022/04/17 14:17:20;;;;;;;1.73;1.35;;;;;;;;;;6131193;23;20018;-88
2022/04/17 14:20:38;;;;;;;;;;;;;;;;;;;;;
2022/04/17 14:23:35;;;;;;;3.17;1.88;;;;;;;;;;6114284;23;20792;-86
2022/04/17 14:26:12;;;;;;;1.30;1.30;;;;;;;;;;6098394;23;20552;-86
2022/04/17 14:28:42;;;;;;;2.67;2.15;;;;;;;;;;6098667;23;20452;-86
2022/04/17 14:31:14;;;;;;;2.53;2.33;;;;;;;;;;6073439;23;20032;-87
2022/04/17 14:33:44;;;;;;;4.38;2.17;;;;;;;;;;6122299;23;20017;-87
2022/04/17 14:36:13;;;;;;;2.40;2.22;;;;;;;;;;6098499;23;20492;-87
2022/04/17 14:38:45;;;;;;;3.05;2.28;;;;;;;;;;6097655;23;20030;-86
2022/04/17 14:41:18;;;;;;;2.50;2.30;;;;;;;;;;6097285;23;20463;-86
2022/04/17 14:43:50;;;;;;;3.33;3.03;;;;;;;;;;6123088;23;20025;-86
2022/04/17 14:46:20;;;;;;;2.10;2.00;;;;;;;;;;6097692;23;20040;-87
2022/04/17 14:48:53;;;;;;;1.77;1.67;;;;;;;;;;6099052;23;20449;-87
2022/04/17 14:51:22;;;;;;;2.10;1.80;;;;;;;;;;6096998;23;20739;-86
2022/04/17 14:53:51;;;;;;;2.88;2.67;;;;;;;;;;6096472;23;20363;-86
2022/04/17 14:56:20;;;;;;;2.75;2.30;;;;;;;;;;6096966;23;20021;-86
2022/04/17 14:58:48;;;;;;;3.05;2.85;;;;;;;;;;6084673;23;20033;-84
2022/04/17 15:01:17;;;;;;;2.65;2.45;;;;;;;;;;6129338;23;20022;-87
2022/04/17 15:03:47;;;;;;;2.38;1.88;;;;;;;;;;6097999;23;20021;-88
2022/04/17 15:06:21;;;;;;;2.20;2.10;;;;;;;;;;6118851;23;20033;-87
2022/04/17 15:08:53;;;;;;;2.67;2.47;;;;;;;;;;6092632;23;20033;-88
2022/04/17 15:11:27;;;;;;;2.35;2.25;;;;;;;;;;6121698;23;20327;-87
2022/04/17 15:13:56;;;;;;;1.88;1.52;;;;;;;;;;6094980;23;20021;-86
2022/04/17 15:16:33;;;;;;;4.07;2.70;;;;;;;;;;6099318;23;20018;-87
2022/04/17 15:19:08;;;;;;;3.45;2.42;;;;;;;;;;6057074;23;20037;-88
2022/04/17 15:23:18;;;;;;;1.85;1.75;;;;;;;;;;6013707;23;20297;-88
2022/04/17 15:25:47;;;;;;;2.55;2.35;;;;;;;;;;6063714;23;20018;-83
2022/04/17 15:28:15;;;;;;;2.15;1.80;;;;;;;;;;6041694;23;20018;-85
2022/04/17 15:30:44;;;;;;;1.88;1.77;;;;;;;;;;5985886;23;20423;-86
2022/04/17 15:33:12;;;;;;;2.63;1.90;;;;;;;;;;6007379;23;20027;-80
2022/04/17 15:35:40;;;;;;;4.68;2.03;;;;;;;;;;6033031;23;20030;-80
2022/04/17 15:38:08;;;;;;;4.13;3.22;;;;;;;;;;6061467;23;20031;-80
2022/04/17 15:40:36;;;;;;;2.88;2.38;;;;;;;;;;6059582;23;20056;-79
2022/04/17 15:48:44;;;;;;;3.15;2.08;;;;;;;;;;6066566;23;20022;-80
2022/04/17 15:51:16;;;;;;;1.98;1.88;;;;;;;;;;6078099;23;20393;-81
2022/04/17 15:53:44;;;;;;;4.28;3.90;;;;;;;;;;6127169;23;20497;-79
2022/04/17 15:56:12;;;;;;;1.65;1.55;;;;;;;;;;6158511;23;20014;-81
2022/04/17 15:58:44;;;;;;;2.20;2.05;;;;;;;;;;6151016;23;20036;-79
2022/04/17 16:01:12;;;;;;;2.28;2.13;;;;;;;;;;6157535;23;20429;-80
2022/04/17 16:03:40;;;;;;;5.28;2.40;;;;;;;;;;6157701;23;20021;-80
2022/04/17 16:06:08;;;;;;;2.53;2.30;;;;;;;;;;6152687;23;20030;-74
2022/04/17 16:08:37;;;;;;;3.08;2.70;;;;;;;;;;6156876;23;20033;-75
2022/04/17 16:11:06;;;;;;;2.25;2.15;;;;;;;;;;6149259;23;20037;-75
2022/04/17 16:13:34;;;;;;;3.15;2.80;;;;;;;;;;6129445;23;20409;-75
2022/04/17 16:16:02;;;;;;;3.83;3.08;;;;;;;;;;6157896;23;20020;-74
2022/04/17 16:18:30;;;;;;;2.47;2.28;;;;;;;;;;6124390;23;20030;-75
2022/04/17 16:20:58;;;;;;;7.60;3.63;;;;;;;;;;6132018;23;20016;-75
2022/04/17 16:23:26;;;;;;;4.20;3.90;;;;;;;;;;6146940;23;20033;-76
2022/04/17 16:25:54;;;;;;;6.97;3.92;;;;;;;;;;6153720;23;20617;-76
2022/04/17 16:28:22;;;;;;;2.03;1.88;;;;;;;;;;6097118;23;20024;-77
2022/04/17 16:30:50;;;;;;;2.47;2.15;;;;;;;;;;6123336;23;20025;-75
2022/04/17 16:33:18;;;;;;;3.30;2.30;;;;;;;;;;6155938;23;20520;-75
2022/04/17 16:35:46;;;;;;;3.08;2.28;;;;;;;;;;6158131;23;20020;-75
2022/04/17 16:38:17;;;;;;;1.45;1.35;;;;;;;;;;6119939;23;20745;-75
2022/04/17 16:40:45;;;;;;;14.18;2.97;;;;;;;;;;6157654;23;20038;-79
2022/04/17 16:43:13;;;;;;;5.38;2.28;;;;;;;;;;6121847;23;20029;-78
2022/04/17 16:45:41;;;;;;;2.72;2.53;;;;;;;;;;6155118;23;20025;-79
2022/04/17 16:48:09;;;;;;;2.13;1.98;;;;;;;;;;6156913;23;20314;-78
2022/04/17 16:50:36;;;;;;;2.17;1.88;;;;;;;;;;6121039;23;20457;-78
2022/04/17 16:53:05;;;;;;;2.15;2.05;;;;;;;;;;6155820;23;20025;-79
2022/04/17 16:55:34;;;;;;;2.88;2.63;;;;;;;;;;6157711;23;20025;-85
2022/04/17 17:00:50;;;;;;;6.88;2.45;;;;;;;;;;6158081;23;20017;-76
2022/04/17 17:03:18;;;;;;;3.20;2.35;;;;;;;;;;6148120;23;20025;-76
2022/04/17 17:05:46;;;;;;;2.88;2.33;;;;;;;;;;6127858;23;20025;-82
2022/04/17 17:08:15;;;;;;;3.20;2.00;;;;;;;;;;6155748;23;20023;-83
2022/04/17 17:10:43;;;;;;;4.25;2.03;;;;;;;;;;6150190;23;20036;-83
2022/04/17 17:13:21;;;;;;;2.55;2.35;;;;;;;;;;6156891;23;20347;-78
2022/04/17 17:15:57;;;;;;;1.92;1.83;;;;;;;;;;6160863;23;20437;-78
2022/04/17 17:18:28;;;;;;;4.13;1.88;;;;;;;;;;6154078;23;20636;-78
2022/04/17 17:20:56;;;;;;;1.98;1.80;;;;;;;;;;6161356;23;20021;-78
2022/04/17 17:23:24;;;;;;;2.38;2.17;;;;;;;;;;6150293;23;20025;-79
2022/04/17 17:25:55;;;;;;;1.95;1.85;;;;;;;;;;6157487;23;20622;-79
2022/04/17 17:28:25;;;;;;;2.42;2.33;;;;;;;;;;6160656;23;20491;-78
2022/04/17 17:30:54;;;;;;;2.30;2.03;;;;;;;;;;6152586;23;20033;-78
2022/04/17 17:33:22;;;;;;;1.73;1.63;;;;;;;;;;6158562;23;20021;-79
2022/04/17 17:35:52;;;;;;;2.25;2.10;;;;;;;;;;6160977;23;20048;-79
2022/04/17 17:38:20;;;;;;;5.32;2.72;;;;;;;;;;6166550;23;20029;-79
2022/04/17 17:40:48;;;;;;;5.53;2.53;;;;;;;;;;6190000;23;20017;-78
2022/04/17 17:43:16;;;;;;;2.45;2.25;;;;;;;;;;6180651;23;20051;-79
2022/04/17 17:45:45;;;;;;;2.65;2.45;;;;;;;;;;6152712;23;20017;-79
2022/04/17 17:48:13;;;;;;;3.40;2.38;;;;;;;;;;6189534;23;20020;-79
2022/04/17 17:50:41;;;;;;;5.07;2.20;;;;;;;;;;6156812;23;20029;-79
2022/04/17 17:53:09;;;;;;;3.08;2.85;;;;;;;;;;6127613;23;20021;-78
2022/04/17 17:55:37;;;;;;;2.22;2.13;;;;;;;;;;6190929;23;20013;-78
2022/04/17 17:58:07;;;;;;;3.20;2.80;;;;;;;;;;6152478;23;20025;-78
2022/04/17 18:00:35;;;;;;;2.88;2.20;;;;;;;;;;6190777;23;20013;-78
2022/04/17 18:03:04;;;;;;;2.97;2.50;;;;;;;;;;6181301;23;20079;-78
2022/04/17 18:05:32;;;;;;;2.38;2.17;;;;;;;;;;6188219;23;20739;-78
2022/04/17 18:16:28;;;;;;;3.78;2.95;;;;;;;;;;6190570;23;20017;-78
2022/04/17 18:18:57;;;;;;;6.25;2.58;;;;;;;;;;6181239;23;20028;-78
2022/04/17 18:21:27;;;;;;;2.50;2.30;;;;;;;;;;6188018;23;20341;-78
2022/04/17 18:23:55;;;;;;;3.03;2.78;;;;;;;;;;6189892;23;20020;-78
2022/04/17 18:26:24;;;;;;;2.30;2.10;;;;;;;;;;6183427;23;20029;-79
2022/04/17 18:28:52;;;;;;;3.33;2.92;;;;;;;;;;6188532;23;20021;-79
2022/04/17 18:31:20;;;;;;;2.33;1.73;;;;;;;;;;6152235;23;20021;-78
2022/04/17 18:33:48;;;;;;;2.92;2.55;;;;;;;;;;6184695;23;20025;-78
2022/04/17 18:36:16;;;;;;;3.33;2.20;;;;;;;;;;6189321;23;20021;-78
2022/04/17 18:38:45;;;;;;;2.25;2.15;;;;;;;;;;6180201;23;20029;-78
2022/04/17 18:41:13;;;;;;;2.00;1.90;;;;;;;;;;6187675;23;20061;-79
2022/04/17 18:43:41;;;;;;;4.97;2.47;;;;;;;;;;6188828;23;20013;-78
2022/04/17 18:46:10;;;;;;;8.63;2.70;;;;;;;;;;6183365;23;20021;-78
2022/04/17 18:48:39;;;;;;;3.42;2.35;;;;;;;;;;6186509;23;20018;-79
2022/04/17 18:51:07;;;;;;;7.07;3.47;;;;;;;;;;6149687;23;20056;-78
2022/04/17 18:53:35;;;;;;;2.67;2.47;;;;;;;;;;6183159;23;20465;-78
2022/04/17 18:56:03;;;;;;;4.82;2.58;;;;;;;;;;6188083;23;20017;-77
2022/04/17 18:58:31;;;;;;;3.35;2.97;;;;;;;;;;6180808;23;20033;-81
2022/04/17 19:00:59;;;;;;;4.05;3.75;;;;;;;;;;6187920;23;20021;-82
2022/04/17 19:03:27;;;;;;;2.35;2.13;;;;;;;;;;6177351;23;20036;-81
2022/04/17 19:05:55;;;;;;;6.00;3.60;;;;;;;;;;6183710;23;20028;-81
2022/04/17 19:08:27;;;;;;;2.90;2.45;;;;;;;;;;6186917;23;20024;-82
2022/04/17 19:13:58;;;;;;;2.40;2.20;;;;;;;;;;6153514;23;20036;-82
2022/04/17 19:14:02;;;;;;;2.55;2.45;;;;;;;;;;6150699;23;20029;-82
2022/04/17 19:16:30;;;;;;;4.22;2.00;;;;;;;;;;6161750;23;20017;-81
2022/04/17 19:18:59;;;;;;;2.13;1.70;;;;;;;;;;6178417;23;20036;-81
2022/04/17 19:21:27;;;;;;;2.33;2.22;;;;;;;;;;6184940;23;20036;-82
2022/04/17 19:23:55;;;;;;;2.97;2.78;;;;;;;;;;6186796;23;20020;-81
2022/04/17 19:26:23;;;;;;;2.55;2.35;;;;;;;;;;6181609;23;20036;-81
2022/04/17 19:28:52;;;;;;;3.80;2.72;;;;;;;;;;6160669;23;20013;-82
2022/04/17 19:36:55;;;;;;;3.05;2.72;;;;;;;;;;6187519;23;20021;-85
2022/04/17 19:39:29;;;;;;;3.33;2.70;;;;;;;;;;6177254;23;20029;-84
2022/04/17 19:41:57;;;;;;;3.15;2.85;;;;;;;;;;6182928;23;20025;-81
2022/04/17 19:44:26;;;;;;;2.80;2.60;;;;;;;;;;6150930;23;20028;-83
2022/04/17 19:46:54;;;;;;;2.00;1.90;;;;;;;;;;6153462;23;20079;-83
2022/04/17 19:49:22;;;;;;;2.60;2.40;;;;;;;;;;6185490;23;20220;-84
2022/04/17 19:51:50;;;;;;;3.10;2.75;;;;;;;;;;6161704;23;20020;-84
2022/04/17 19:54:18;;;;;;;3.05;2.85;;;;;;;;;;6150153;23;20032;-84
2022/04/17 19:56:46;;;;;;;4.53;3.30;;;;;;;;;;6186639;23;20017;-85
2022/04/17 19:59:17;;;;;;;3.17;2.97;;;;;;;;;;6177772;23;20080;-86
2022/04/17 20:01:45;;;;;;;2.85;2.65;;;;;;;;;;6184354;23;20021;-81
2022/04/17 20:04:13;;;;;;;2.95;2.75;;;;;;;;;;6187112;23;20057;-84
2022/04/17 20:06:46;;;;;;;3.05;2.85;;;;;;;;;;6176216;23;20024;-83
2022/04/17 20:09:17;;;;;;;2.85;2.50;;;;;;;;;;6175291;23;20020;-78
2022/04/17 20:11:47;;;;;;;4.03;2.55;;;;;;;;;;6176580;23;20449;-79
2022/04/17 20:14:17;;;;;;;3.17;2.88;;;;;;;;;;6181168;23;20040;-79
2022/04/17 20:16:46;;;;;;;3.35;3.10;;;;;;;;;;6187183;23;20021;-77
2022/04/17 20:19:17;;;;;;;3.45;3.25;;;;;;;;;;6177025;23;20028;-77
2022/04/17 20:22:00;;;;;;;3.33;2.15;;;;;;;;;;6125439;23;20025;-77
2022/04/17 20:24:32;;;;;;;3.75;3.40;;;;;;;;;;6160915;23;20024;-77
2022/04/17 20:27:03;;;;;;;2.55;2.35;;;;;;;;;;6176164;23;20124;-77
2022/04/17 20:29:34;;;;;;;6.22;3.10;;;;;;;;;;6153467;23;20021;-77
2022/04/17 20:32:05;;;;;;;2.75;2.55;;;;;;;;;;6154013;23;20025;-77
2022/04/17 20:34:36;;;;;;;8.52;3.78;;;;;;;;;;6182665;23;20029;-77
2022/04/17 20:37:08;;;;;;;3.90;3.50;;;;;;;;;;6179459;23;20017;-78
2022/04/17 20:39:39;;;;;;;3.00;2.80;;;;;;;;;;6152872;23;20067;-77
2022/04/17 20:42:08;;;;;;;4.43;3.10;;;;;;;;;;6184732;23;20029;-77
2022/04/17 20:52:58;;;;;;;5.60;3.75;;;;;;;;;;6157568;23;20314;-78
2022/04/17 20:55:27;;;;;;;3.45;3.15;;;;;;;;;;6174381;23;20349;-78
2022/04/17 20:57:55;;;;;;;2.90;2.65;;;;;;;;;;6182847;23;20436;-78
2022/04/17 21:00:24;;;;;;;3.22;2.92;;;;;;;;;;6160283;23;20024;-78
2022/04/17 21:02:53;;;;;;;3.30;3.03;;;;;;;;;;6150181;23;20055;-77
2022/04/17 21:05:22;;;;;;;4.50;3.08;;;;;;;;;;6174711;23;20020;-77
2022/04/17 21:07:51;;;;;;;5.53;3.72;;;;;;;;;;6189211;23;20024;-77
2022/04/17 21:10:20;;;;;;;3.55;3.25;;;;;;;;;;6184201;23;20014;-78
2022/04/17 21:12:48;;;;;;;4.88;3.20;;;;;;;;;;6190498;23;20016;-78
2022/04/17 21:15:18;;;;;;;3.65;3.08;;;;;;;;;;6153738;23;20024;-77
2022/04/17 21:17:50;;;;;;;3.58;3.33;;;;;;;;;;6179152;23;20014;-77
2022/04/17 21:20:19;;;;;;;4.07;3.30;;;;;;;;;;6179696;23;20421;-77
2022/04/17 21:22:49;;;;;;;7.82;3.63;;;;;;;;;;6156099;23;20459;-77
2022/04/17 21:25:19;;;;;;;4.75;3.65;;;;;;;;;;6188473;23;20014;-77
2022/04/17 21:27:49;;;;;;;2.80;2.60;;;;;;;;;;6180347;23;20318;-77
2022/04/17 21:30:19;;;;;;;3.05;2.80;;;;;;;;;;6153820;23;20020;-77
2022/04/17 21:32:49;;;;;;;4.93;3.22;;;;;;;;;;6179717;23;20013;-77
2022/04/17 21:35:20;;;;;;;3.53;3.22;;;;;;;;;;6177692;23;20033;-77
2022/04/17 21:37:50;;;;;;;3.28;2.97;;;;;;;;;;6127645;23;20021;-77
2022/04/17 21:40:20;;;;;;;3.45;3.03;;;;;;;;;;6129201;23;20043;-77
2022/04/17 21:42:49;;;;;;;4.32;4.00;;;;;;;;;;6182284;23;20078;-77
2022/04/17 21:45:19;;;;;;;4.20;3.92;;;;;;;;;;6179135;23;20017;-77
2022/04/17 21:47:48;;;;;;;3.60;3.30;;;;;;;;;;6190013;23;20024;-77
2022/04/17 21:50:16;;;;;;;3.55;3.38;;;;;;;;;;6153983;23;20036;-77
2022/04/17 21:52:47;;;;;;;4.55;4.15;;;;;;;;;;6179914;23;20626;-77
2022/04/17 21:55:16;;;;;;;3.80;3.53;;;;;;;;;;6178928;23;20052;-77
2022/04/17 21:57:45;;;;;;;4.75;3.67;;;;;;;;;;6103948;23;20580;-77
2022/04/17 22:06:01;;;;;;;4.60;4.20;;;;;;;;;;6129867;23;20048;-77
2022/04/17 22:08:29;;;;;;;4.57;4.25;;;;;;;;;;6190836;23;20021;-77
2022/04/17 22:10:58;;;;;;;3.92;3.65;;;;;;;;;;6183584;23;20039;-77
2022/04/17 22:13:28;;;;;;;3.47;3.17;;;;;;;;;;6189797;23;20025;-77
2022/04/17 22:15:56;;;;;;;3.33;3.03;;;;;;;;;;6155468;23;20028;-77
2022/04/17 22:18:26;;;;;;;16.08;3.53;;;;;;;;;;6129768;23;20472;-77
2022/04/17 22:20:55;;;;;;;3.83;3.55;;;;;;;;;;6131319;23;20021;-77
2022/04/17 22:23:23;;;;;;;3.92;3.60;;;;;;;;;;6154677;23;20021;-77
2022/04/17 22:25:52;;;;;;;4.32;4.05;;;;;;;;;;6129985;23;20024;-77
2022/04/17 22:28:21;;;;;;;3.08;2.88;;;;;;;;;;6191775;23;20017;-77
2022/04/17 22:30:50;;;;;;;4.40;4.10;;;;;;;;;;6154400;23;20029;-78
2022/04/17 22:33:19;;;;;;;4.55;4.18;;;;;;;;;;6189303;23;20013;-78
2022/04/17 22:35:48;;;;;;;7.20;3.83;;;;;;;;;;6191695;23;20024;-78
2022/04/17 22:38:20;;;;;;;7.70;3.88;;;;;;;;;;6180006;23;20452;-77
2022/04/17 22:40:49;;;;;;;4.55;4.22;;;;;;;;;;6191730;23;20024;-77
2022/04/17 22:43:17;;;;;;;4.07;3.78;;;;;;;;;;6156030;23;20452;-77
2022/04/17 22:45:45;;;;;;;3.95;3.55;;;;;;;;;;6188010;23;20021;-77
2022/04/17 22:48:14;;;;;;;3.63;3.33;;;;;;;;;;6181173;23;20385;-77
2022/04/17 22:50:47;;;;;;;5.93;3.35;;;;;;;;;;6158572;23;20036;-77
2022/04/17 22:53:16;;;;;;;4.68;3.78;;;;;;;;;;6162329;23;20013;-78
2022/04/17 22:55:45;;;;;;;3.95;3.65;;;;;;;;;;6155173;23;20032;-77
2022/04/17 22:58:14;;;;;;;5.60;3.72;;;;;;;;;;6185558;23;20024;-77
2022/04/17 23:03:31;;;;;;;4.43;4.03;;;;;;;;;;6180046;23;20457;-77
2022/04/17 23:05:59;;;;;;;3.90;3.60;;;;;;;;;;6187030;23;20464;-77
2022/04/17 23:08:27;;;;;;;6.05;3.60;;;;;;;;;;6139638;23;20013;-77
2022/04/17 23:10:55;;;;;;;3.60;3.30;;;;;;;;;;6156844;23;20667;-77
2022/04/17 23:13:23;;;;;;;2.83;2.63;;;;;;;;;;6189384;23;20018;-78
2022/04/17 23:15:52;;;;;;;3.67;3.33;;;;;;;;;;6165453;23;20013;-77
2022/04/17 23:18:20;;;;;;;3.13;2.92;;;;;;;;;;6158673;23;20025;-78
2022/04/17 23:20:48;;;;;;;5.53;3.72;;;;;;;;;;6155191;23;20017;-77
2022/04/17 23:23:16;;;;;;;3.22;3.03;;;;;;;;;;6179617;23;20472;-77
2022/04/17 23:25:44;;;;;;;4.85;3.55;;;;;;;;;;6162093;23;20025;-77
2022/04/17 23:28:12;;;;;;;4.95;3.92;;;;;;;;;;6190999;23;20009;-77
2022/04/17 23:30:40;;;;;;;4.03;3.70;;;;;;;;;;6184204;23;20737;-77
2022/04/17 23:33:08;;;;;;;4.88;3.80;;;;;;;;;;6163754;23;20020;-77
2022/04/17 23:35:36;;;;;;;3.92;3.70;;;;;;;;;;6190961;23;20016;-78
2022/04/17 23:38:04;;;;;;;3.65;3.33;;;;;;;;;;6158916;23;20028;-77
2022/04/17 23:40:32;;;;;;;3.92;3.47;;;;;;;;;;6165176;23;20009;-77
2022/04/17 23:43:00;;;;;;;3.08;2.78;;;;;;;;;;6182415;23;20021;-77
2022/04/17 23:45:28;;;;;;;3.83;3.33;;;;;;;;;;6188976;23;20322;-77
2022/04/17 23:47:56;;;;;;;6.50;5.93;;;;;;;;;;6190375;23;20021;-77
2022/04/17 23:50:24;;;;;;;5.38;3.30;;;;;;;;;;6184651;23;20036;-77
2022/04/17 23:52:52;;;;;;;4.32;3.38;;;;;;;;;;6154300;23;20017;-77
2022/04/17 23:55:20;;;;;;;4.60;4.13;;;;;;;;;;6179856;23;20345;-77
2022/04/17 23:57:50;;;;;;;3.42;3.13;;;;;;;;;;6187116;23;20017;-77
